Time;durP1;ratioP1;P1;durP2;ratioP2;P2;SDS_P1;SDS_P2;PMS_P1;PMS_P2;Temp;Humidity;BMP_temperature;BMP_pressure;BME280_temperature;BME280_humidity;BME280_pressure;Samples;Min_cycle;Max_cycle;Signal;HPM_P1;HPM_P2
2023/02/07 00:01:58;;;;;;;9.40;4.47;;;-3.40;99.90;;;;;;8232767;28;20042;-78
2023/02/07 00:06:29;;;;;;;8.40;4.95;;;-3.40;99.90;;;;;;8234191;28;20065;-78
2023/02/07 00:10:30;;;;;;;3.03;2.58;;;-3.30;99.90;;;;;;8226869;28;20030;-78
2023/02/07 00:14:30;;;;;;;10.40;5.72;;;-3.30;99.90;;;;;;8232693;28;20015;-78
2023/02/07 00:18:32;;;;;;;7.20;4.30;;;-3.40;99.90;;;;;;8233076;28;20030;-78
2023/02/07 00:22:32;;;;;;;2.35;2.00;;;-3.50;99.90;;;;;;8234039;28;20086;-78
2023/02/07 00:26:33;;;;;;;5.38;2.88;;;-3.60;99.90;;;;;;8233097;28;20090;-78
2023/02/07 00:30:33;;;;;;;11.35;5.95;;;-3.90;99.90;;;;;;8233287;28;20031;-78
2023/02/07 00:34:35;;;;;;;11.93;4.55;;;-4.00;99.90;;;;;;8232631;28;20018;-78
2023/02/07 00:38:36;;;;;;;1.48;0.98;;;-4.00;99.90;;;;;;8233042;28;20033;-78
2023/02/07 00:42:36;;;;;;;5.18;2.85;;;-4.00;99.90;;;;;;8232890;28;20495;-77
2023/02/07 00:46:38;;;;;;;7.53;5.18;;;-4.10;99.90;;;;;;8230835;28;20114;-78
2023/02/07 00:50:38;;;;;;;3.78;0.85;;;-3.80;99.90;;;;;;8231011;28;20046;-78
2023/02/07 00:54:39;;;;;;;11.13;5.85;;;-3.60;99.90;;;;;;8231367;28;20050;-78
2023/02/07 00:58:39;;;;;;;11.70;5.53;;;-3.50;99.90;;;;;;8231474;28;20033;-77
2023/02/07 01:02:40;;;;;;;16.67;6.50;;;-3.40;99.90;;;;;;8229795;28;20023;-78
2023/02/07 01:06:41;;;;;;;14.15;5.88;;;-3.40;99.90;;;;;;8232169;28;20586;-78
2023/02/07 01:10:43;;;;;;;10.82;4.82;;;-3.40;99.90;;;;;;8229034;28;20034;-77
2023/02/07 01:14:44;;;;;;;13.43;5.20;;;-3.30;99.90;;;;;;8229857;28;20023;-77
2023/02/07 01:18:44;;;;;;;15.88;6.75;;;-3.30;99.90;;;;;;8231011;28;20480;-77
2023/02/07 01:22:45;;;;;;;7.78;3.92;;;-3.40;99.90;;;;;;8230955;28;20031;-78
2023/02/07 01:26:45;;;;;;;6.57;3.58;;;-3.50;99.90;;;;;;8230664;28;20027;-78
2023/02/07 01:30:46;;;;;;;7.97;4.20;;;-3.60;99.90;;;;;;8230545;28;20129;-77
2023/02/07 01:34:46;;;;;;;3.70;2.20;;;-3.60;99.90;;;;;;8230136;28;20015;-77
2023/02/07 01:38:47;;;;;;;19.23;8.30;;;-3.70;99.90;;;;;;8231831;28;20026;-77
2023/02/07 01:42:47;;;;;;;11.88;4.57;;;-3.80;99.90;;;;;;8228976;28;20569;-78
2023/02/07 01:46:50;;;;;;;11.40;5.13;;;-3.80;99.90;;;;;;8229366;28;20474;-78
2023/02/07 01:50:54;;;;;;;9.18;3.15;;;-3.90;99.90;;;;;;8226932;28;20023;-78
2023/02/07 01:54:57;;;;;;;5.93;3.70;;;-4.00;99.90;;;;;;8229731;28;20031;-77
2023/02/07 01:59:00;;;;;;;14.65;5.30;;;-4.20;99.90;;;;;;8229858;28;20022;-78
2023/02/07 02:03:02;;;;;;;5.15;3.08;;;-4.20;99.90;;;;;;8230841;28;20574;-77
2023/02/07 02:07:05;;;;;;;6.53;4.00;;;-4.30;99.90;;;;;;8230952;28;20046;-77
2023/02/07 02:11:35;;;;;;;10.13;5.00;;;-4.30;99.90;;;;;;8228637;28;20487;-78
2023/02/07 02:15:56;;;;;;;3.28;2.75;;;-4.20;99.90;;;;;;8227339;28;20023;-77
2023/02/07 02:20:18;;;;;;;8.73;5.55;;;-4.00;99.90;;;;;;8229226;28;20027;-78
2023/02/07 02:25:01;;;;;;;8.35;4.82;;;-3.90;99.90;;;;;;8230286;28;20102;-78
2023/02/07 02:29:41;;;;;;;4.47;3.70;;;-3.80;99.90;;;;;;8200429;28;20043;-78
2023/02/07 02:33:55;;;;;;;6.05;1.95;;;-3.80;99.90;;;;;;8228669;28;20038;-78
2023/02/07 02:38:18;;;;;;;10.95;5.00;;;-3.80;99.90;;;;;;8226475;28;20031;-77
2023/02/07 02:42:41;;;;;;;4.75;3.47;;;-3.80;99.90;;;;;;8228767;28;20023;-76
2023/02/07 02:46:43;;;;;;;4.03;3.03;;;-3.90;99.90;;;;;;8227205;28;20018;-77
2023/02/07 02:50:46;;;;;;;12.02;5.63;;;-3.90;99.90;;;;;;8228068;28;20495;-77
2023/02/07 02:54:47;;;;;;;7.82;4.32;;;-4.10;99.90;;;;;;8228393;28;20034;-78
2023/02/07 02:59:13;;;;;;;8.35;4.80;;;-4.20;99.90;;;;;;8228545;28;20114;-78
2023/02/07 03:03:40;;;;;;;13.45;5.38;;;-4.30;99.90;;;;;;8228559;28;20029;-78
2023/02/07 03:07:53;;;;;;;10.65;5.07;;;-4.30;99.90;;;;;;8227929;28;20019;-78
2023/02/07 03:11:59;;;;;;;32.50;5.38;;;-4.40;99.90;;;;;;8227462;28;20027;-77
2023/02/07 03:16:18;;;;;;;8.55;4.88;;;-4.50;99.90;;;;;;8227224;28;20030;-77
2023/02/07 03:20:26;;;;;;;13.38;8.25;;;-4.50;99.90;;;;;;8227880;28;20123;-77
2023/02/07 03:24:32;;;;;;;12.35;4.22;;;-4.50;99.90;;;;;;8227826;28;20023;-78
2023/02/07 03:28:34;;;;;;;7.30;4.50;;;-4.40;99.90;;;;;;8227741;28;20050;-77
2023/02/07 03:32:42;;;;;;;5.57;3.38;;;-4.30;99.90;;;;;;8229453;28;20031;-77
2023/02/07 03:36:49;;;;;;;15.60;8.45;;;-4.20;99.90;;;;;;8234786;28;20038;-78
2023/02/07 03:40:56;;;;;;;17.73;6.65;;;-4.10;99.90;;;;;;8232901;28;20030;-78
2023/02/07 03:44:59;;;;;;;15.88;7.13;;;-4.10;99.90;;;;;;8230348;28;20069;-78
2023/02/07 03:49:00;;;;;;;12.05;6.38;;;-4.00;99.90;;;;;;8234343;28;20403;-78
2023/02/07 03:53:00;;;;;;;9.95;4.03;;;-4.10;99.90;;;;;;8234014;28;20034;-78
2023/02/07 03:57:01;;;;;;;12.90;6.75;;;-4.10;99.90;;;;;;8232018;28;20031;-78
2023/02/07 04:01:01;;;;;;;7.53;5.38;;;-4.20;99.90;;;;;;8236427;28;20078;-77
2023/02/07 04:05:02;;;;;;;6.63;3.40;;;-4.30;99.90;;;;;;8231449;28;20026;-76
2023/02/07 04:09:03;;;;;;;11.88;6.28;;;-4.50;99.90;;;;;;8231755;28;20033;-78
2023/02/07 04:13:03;;;;;;;4.53;2.80;;;-4.50;99.90;;;;;;8229529;28;20035;-78
2023/02/07 04:17:04;;;;;;;6.22;4.28;;;-4.70;99.90;;;;;;8232159;28;20027;-78
2023/02/07 04:21:06;;;;;;;7.60;4.53;;;-4.60;99.90;;;;;;8232149;28;20058;-76
2023/02/07 04:25:07;;;;;;;9.25;4.40;;;-4.70;99.90;;;;;;8232576;28;20033;-78
2023/02/07 04:29:08;;;;;;;10.55;5.13;;;-4.70;99.90;;;;;;8234122;28;20027;-78
2023/02/07 04:33:09;;;;;;;9.05;5.78;;;-4.80;99.90;;;;;;8224792;28;20034;-78
2023/02/07 04:37:09;;;;;;;7.00;4.93;;;-4.80;99.90;;;;;;8229239;28;20031;-78
2023/02/07 04:41:10;;;;;;;5.32;3.40;;;-4.90;99.90;;;;;;8226648;28;20602;-78
2023/02/07 04:45:10;;;;;;;6.38;3.55;;;-5.00;99.90;;;;;;8230844;28;21328;-78
2023/02/07 04:49:11;;;;;;;8.20;4.15;;;-5.10;99.90;;;;;;8231999;28;20088;-78
2023/02/07 04:53:12;;;;;;;7.72;4.75;;;-5.20;99.90;;;;;;8232749;28;20034;-78
2023/02/07 04:57:12;;;;;;;10.38;4.15;;;-5.20;99.90;;;;;;8229930;28;20069;-78
2023/02/07 05:01:13;;;;;;;2.78;2.53;;;-5.40;99.90;;;;;;8232161;28;20033;-78
2023/02/07 05:05:14;;;;;;;10.75;6.97;;;-5.30;99.90;;;;;;8232832;28;20113;-78
2023/02/07 05:09:14;;;;;;;9.95;4.32;;;-5.20;99.90;;;;;;8230528;28;20069;-78
2023/02/07 05:13:15;;;;;;;6.18;4.43;;;-5.20;99.90;;;;;;8232160;28;20376;-78
2023/02/07 05:17:15;;;;;;;4.28;2.10;;;-5.20;99.90;;;;;;8231057;28;20030;-78
2023/02/07 05:21:16;;;;;;;6.13;2.03;;;-5.20;99.90;;;;;;8230153;28;20038;-78
2023/02/07 05:25:17;;;;;;;5.10;2.72;;;-5.30;99.90;;;;;;8226082;28;20129;-78
2023/02/07 05:29:18;;;;;;;7.82;4.78;;;-5.50;99.90;;;;;;8231194;28;20510;-78
2023/02/07 05:33:18;;;;;;;11.05;6.50;;;-5.90;99.90;;;;;;8232125;28;20383;-78
2023/02/07 05:37:19;;;;;;;10.98;4.47;;;-6.40;99.90;;;;;;8231466;28;20023;-79
2023/02/07 05:41:19;;;;;;;10.68;5.40;;;-6.60;99.90;;;;;;8231446;28;20491;-78
2023/02/07 05:45:20;;;;;;;11.40;4.78;;;-6.30;99.90;;;;;;8231158;28;20021;-77
2023/02/07 05:49:21;;;;;;;4.30;3.00;;;-6.30;99.90;;;;;;8230123;28;20041;-78
2023/02/07 05:53:21;;;;;;;7.63;3.95;;;-6.30;99.90;;;;;;8233099;28;20034;-78
2023/02/07 05:57:22;;;;;;;1.13;1.10;;;-6.30;99.90;;;;;;8227979;28;20038;-78
2023/02/07 06:01:22;;;;;;;15.40;6.00;;;-6.30;99.90;;;;;;8229471;28;20078;-77
2023/02/07 06:05:23;;;;;;;7.53;3.92;;;-6.60;99.90;;;;;;8236011;28;20565;-79
2023/02/07 06:09:24;;;;;;;8.00;4.10;;;-6.50;99.90;;;;;;8244217;28;20054;-77
2023/02/07 06:13:24;;;;;;;11.55;5.15;;;-6.90;99.90;;;;;;8230576;28;20033;-78
2023/02/07 06:17:25;;;;;;;8.05;3.80;;;-7.30;99.90;;;;;;8223466;28;20048;-78
2023/02/07 06:21:26;;;;;;;6.50;3.47;;;-7.50;99.90;;;;;;8228661;28;20026;-78
2023/02/07 06:25:26;;;;;;;8.95;4.35;;;-7.60;99.90;;;;;;8228457;28;20015;-78
2023/02/07 06:29:27;;;;;;;4.93;3.13;;;-7.60;99.90;;;;;;8228430;28;20030;-77
2023/02/07 06:33:27;;;;;;;6.45;3.17;;;-7.60;99.90;;;;;;8228410;28;20657;-78
2023/02/07 06:37:28;;;;;;;4.55;3.47;;;-7.70;99.90;;;;;;8224292;28;20031;-77
2023/02/07 06:41:28;;;;;;;6.82;4.43;;;-7.80;99.90;;;;;;8228244;28;20380;-78
2023/02/07 06:45:29;;;;;;;11.32;3.80;;;-7.40;99.90;;;;;;8228396;28;20406;-78
2023/02/07 06:49:30;;;;;;;4.75;3.40;;;-7.60;99.90;;;;;;8229333;28;20399;-77
2023/02/07 06:53:30;;;;;;;4.65;2.97;;;-7.20;99.90;;;;;;8228578;28;20023;-77
2023/02/07 06:57:31;;;;;;;3.70;3.15;;;-7.20;99.90;;;;;;8229315;28;20093;-78
2023/02/07 07:01:31;;;;;;;6.95;2.85;;;-7.10;99.90;;;;;;8228906;28;20038;-77
2023/02/07 07:05:32;;;;;;;5.95;3.20;;;-7.20;99.90;;;;;;8227628;28;20414;-78
2023/02/07 07:09:33;;;;;;;5.38;3.40;;;-7.10;99.90;;;;;;8231718;28;20113;-76
2023/02/07 07:13:33;;;;;;;2.97;2.47;;;-6.60;99.90;;;;;;8235787;28;20174;-76
2023/02/07 07:17:34;;;;;;;12.13;5.28;;;-6.30;99.90;;;;;;8233960;28;20435;-77
2023/02/07 07:21:35;;;;;;;7.60;3.08;;;-6.20;99.90;;;;;;8233861;28;20030;-77
2023/02/07 07:25:35;;;;;;;12.60;7.00;;;-6.00;99.90;;;;;;8233540;28;20015;-77
2023/02/07 07:29:36;;;;;;;0.68;0.68;;;-5.80;99.90;;;;;;8233148;28;20407;-77
2023/02/07 07:33:37;;;;;;;10.02;5.13;;;-5.70;99.90;;;;;;8233380;28;20023;-77
2023/02/07 07:37:37;;;;;;;8.98;4.35;;;-5.60;99.90;;;;;;8234376;28;20030;-77
2023/02/07 07:41:38;;;;;;;0.98;0.98;;;-5.60;99.90;;;;;;8234051;28;20019;-77
2023/02/07 07:45:38;;;;;;;13.70;6.57;;;-5.50;99.90;;;;;;8232756;28;20130;-77
2023/02/07 07:49:39;;;;;;;12.32;6.88;;;-5.40;99.90;;;;;;8228563;28;20224;-75
2023/02/07 07:53:40;;;;;;;8.85;5.93;;;-5.30;99.90;;;;;;8232537;28;20053;-76
2023/02/07 07:57:40;;;;;;;5.53;4.50;;;-5.10;99.90;;;;;;8232280;28;20073;-77
2023/02/07 08:01:41;;;;;;;13.80;4.78;;;-4.80;99.90;;;;;;8232109;28;20435;-77
2023/02/07 08:05:43;;;;;;;9.52;4.47;;;-4.30;99.90;;;;;;8232172;28;20471;-77
2023/02/07 08:09:43;;;;;;;8.02;4.10;;;-4.10;99.90;;;;;;8231474;28;20062;-77
2023/02/07 08:13:44;;;;;;;10.02;5.80;;;-4.00;99.90;;;;;;8231887;28;20023;-77
2023/02/07 08:17:44;;;;;;;8.60;5.55;;;-3.90;99.90;;;;;;8231545;28;20077;-77
2023/02/07 08:21:45;;;;;;;6.80;4.78;;;-3.80;99.90;;;;;;8231462;28;20023;-77
2023/02/07 08:25:46;;;;;;;14.15;6.82;;;-3.90;99.90;;;;;;8231321;28;20019;-77
2023/02/07 08:29:47;;;;;;;7.15;4.70;;;-4.00;99.90;;;;;;8231096;28;20633;-77
2023/02/07 08:33:47;;;;;;;8.23;3.85;;;-3.90;99.90;;;;;;8232556;28;20106;-78
2023/02/07 08:37:49;;;;;;;9.18;4.20;;;-3.80;99.90;;;;;;8230981;28;20077;-76
2023/02/07 08:41:49;;;;;;;15.82;7.90;;;-3.90;99.90;;;;;;8230321;28;20034;-78
2023/02/07 08:45:50;;;;;;;7.45;4.50;;;-3.90;99.90;;;;;;8230539;28;20023;-77
2023/02/07 08:49:50;;;;;;;10.35;6.53;;;-3.80;99.90;;;;;;8230592;28;20049;-77
2023/02/07 08:53:52;;;;;;;13.75;6.30;;;-3.70;99.90;;;;;;8230979;28;20454;-77
2023/02/07 08:57:53;;;;;;;12.27;6.05;;;-3.60;99.90;;;;;;8227293;28;20022;-77
2023/02/07 09:01:53;;;;;;;4.18;3.33;;;-3.20;99.90;;;;;;8242718;28;20038;-76
2023/02/07 09:05:58;;;;;;;7.10;4.90;;;-3.10;99.90;;;;;;8230884;28;20053;-77
2023/02/07 09:09:58;;;;;;;16.20;5.75;;;-3.20;99.90;;;;;;8230338;28;20521;-77
2023/02/07 09:13:59;;;;;;;9.52;4.22;;;-3.20;99.90;;;;;;8230344;28;20022;-77
2023/02/07 09:17:59;;;;;;;14.43;6.65;;;-3.20;99.90;;;;;;8230401;28;20031;-78
2023/02/07 09:22:00;;;;;;;5.03;3.45;;;-3.30;99.90;;;;;;8230005;28;20037;-77
2023/02/07 09:26:03;;;;;;;8.10;5.05;;;-3.30;99.90;;;;;;8226004;28;20544;-77
2023/02/07 09:30:05;;;;;;;13.95;5.80;;;-3.20;99.90;;;;;;8229188;28;20041;-77
2023/02/07 09:34:06;;;;;;;13.38;6.75;;;-3.10;99.90;;;;;;8229845;28;20027;-76
2023/02/07 09:38:11;;;;;;;9.13;5.47;;;-3.00;99.90;;;;;;8229436;28;20030;-77
2023/02/07 09:42:38;;;;;;;2.35;1.60;;;-2.70;99.90;;;;;;8229322;28;20023;-77
2023/02/07 09:46:47;;;;;;;14.20;6.90;;;-2.60;99.90;;;;;;8204483;28;20030;-77
2023/02/07 09:50:53;;;;;;;4.15;2.85;;;-2.50;99.90;;;;;;8228878;28;20364;-77
2023/02/07 09:54:56;;;;;;;10.50;4.93;;;-2.50;99.90;;;;;;8229322;28;20650;-77
2023/02/07 09:59:04;;;;;;;5.28;1.60;;;-2.60;99.90;;;;;;8228324;28;20027;-77
2023/02/07 10:03:13;;;;;;;10.80;5.85;;;-2.60;99.90;;;;;;8228319;28;20031;-75
2023/02/07 10:07:14;;;;;;;12.65;6.78;;;-2.40;99.90;;;;;;8228235;28;20023;-77
2023/02/07 10:11:25;;;;;;;9.13;5.10;;;-2.00;99.90;;;;;;8229578;28;20114;-77
2023/02/07 10:15:38;;;;;;;4.30;3.33;;;-1.90;99.90;;;;;;8240937;28;20046;-76
2023/02/07 10:19:58;;;;;;;14.65;7.13;;;-2.40;99.90;;;;;;8226476;28;20170;-77
2023/02/07 10:24:23;;;;;;;8.02;3.83;;;-2.40;99.90;;;;;;8229025;28;20019;-76
2023/02/07 10:28:47;;;;;;;8.57;6.03;;;-2.10;99.90;;;;;;8240657;28;20700;-76
2023/02/07 10:32:48;;;;;;;8.80;5.10;;;-1.90;99.90;;;;;;8228225;28;20491;-77
2023/02/07 10:36:51;;;;;;;10.65;6.60;;;-2.10;99.90;;;;;;8227888;28;20022;-77
2023/02/07 10:41:03;;;;;;;18.83;6.75;;;-2.10;99.90;;;;;;8228063;28;20030;-76
2023/02/07 10:45:04;;;;;;;7.85;3.65;;;-2.10;99.90;;;;;;8231716;28;20053;-76
2023/02/07 10:49:05;;;;;;;15.15;6.82;;;-1.90;99.90;;;;;;8233972;28;20034;-77
2023/02/07 10:53:05;;;;;;;11.63;5.40;;;-1.50;99.90;;;;;;8234577;28;20030;-77
2023/02/07 10:57:16;;;;;;;12.07;5.70;;;-1.20;99.90;;;;;;8233975;28;20051;-76
2023/02/07 11:01:21;;;;;;;1.02;0.93;;;-0.90;99.90;;;;;;8235040;28;20034;-77
2023/02/07 11:05:21;;;;;;;9.48;4.75;;;-1.00;99.90;;;;;;8233506;28;20042;-77
2023/02/07 11:09:23;;;;;;;4.63;3.38;;;-1.20;99.90;;;;;;8232959;28;20042;-77
2023/02/07 11:13:27;;;;;;;17.02;3.83;;;-1.20;99.90;;;;;;8234277;28;20027;-77
2023/02/07 11:17:28;;;;;;;8.98;4.53;;;-1.20;99.90;;;;;;8234393;28;20052;-76
2023/02/07 11:21:32;;;;;;;6.68;3.15;;;-1.10;99.90;;;;;;8233840;28;20033;-77
2023/02/07 11:25:37;;;;;;;3.67;2.55;;;-1.10;99.90;;;;;;8232752;28;20019;-76
2023/02/07 11:29:48;;;;;;;12.98;7.18;;;-0.40;99.90;;;;;;8234276;28;20102;-77
2023/02/07 11:33:49;;;;;;;15.77;8.43;;;-0.10;99.90;;;;;;8233151;28;20283;-76
2023/02/07 11:38:12;;;;;;;21.27;9.60;;;0.30;99.90;;;;;;8233043;28;20023;-77
2023/02/07 11:42:22;;;;;;;13.07;7.70;;;1.30;99.90;;;;;;8231353;28;20027;-77
2023/02/07 11:46:34;;;;;;;;;;;1.70;99.90;;;;;;8233530;28;20023;-77
2023/02/07 11:50:38;;;;;;;3.33;2.58;;;0.40;99.90;;;;;;8230181;28;19921;-76
2023/02/07 11:54:41;;;;;;;8.13;4.57;;;0.40;99.90;;;;;;8231954;28;20015;-77
2023/02/07 11:58:46;;;;;;;7.53;3.67;;;0.90;99.90;;;;;;8232485;28;20042;-77
2023/02/07 12:03:02;;;;;;;7.30;3.72;;;0.00;99.90;;;;;;8231479;28;20499;-76
2023/02/07 12:07:34;;;;;;;6.00;2.95;;;-0.70;99.90;;;;;;8231803;28;20148;-77
2023/02/07 12:11:39;;;;;;;4.72;3.22;;;-0.70;99.90;;;;;;8232312;28;20109;-76
2023/02/07 12:15:59;;;;;;;1.80;1.70;;;-0.40;99.90;;;;;;8231089;28;20527;-76
2023/02/07 12:20:34;;;;;;;11.55;6.03;;;0.70;99.90;;;;;;8231967;28;20059;-78
2023/02/07 12:24:47;;;;;;;9.57;5.28;;;1.60;99.90;;;;;;8220320;28;20041;-78
2023/02/07 12:29:00;;;;;;;9.38;4.13;;;1.10;99.90;;;;;;8231986;28;20019;-78
2023/02/07 12:33:30;;;;;;;6.80;3.85;;;0.10;99.90;;;;;;8232416;28;20122;-78
2023/02/07 12:37:49;;;;;;;4.90;2.37;;;-0.60;99.90;;;;;;8228873;28;20115;-78
2023/02/07 12:42:03;;;;;;;6.53;2.55;;;-0.20;99.90;;;;;;8231388;28;20019;-79
2023/02/07 12:46:20;;;;;;;8.90;3.55;;;-0.20;99.90;;;;;;8225230;28;20035;-78
2023/02/07 12:50:33;;;;;;;13.73;6.90;;;-0.40;99.90;;;;;;8229785;28;20026;-79
2023/02/07 12:55:07;;;;;;;3.83;2.63;;;-0.40;99.90;;;;;;8228828;28;20030;-79
2023/02/07 12:59:17;;;;;;;14.25;8.77;;;-0.20;99.90;;;;;;8229310;28;20546;-79
2023/02/07 13:03:44;;;;;;;5.70;3.40;;;-0.10;99.90;;;;;;8230866;28;20015;-79
2023/02/07 13:07:56;;;;;;;10.98;6.63;;;-0.30;99.90;;;;;;8224859;28;20038;-79
2023/02/07 13:12:28;;;;;;;5.63;4.43;;;-0.30;99.90;;;;;;8243050;28;20042;-79
2023/02/07 13:16:44;;;;;;;17.60;8.43;;;-0.30;99.90;;;;;;8224657;28;20161;-79
2023/02/07 13:20:53;;;;;;;7.70;5.20;;;-0.30;99.90;;;;;;8230697;28;20039;-79
2023/02/07 13:24:55;;;;;;;7.25;3.95;;;-0.20;99.90;;;;;;8231749;28;20034;-79
2023/02/07 13:28:57;;;;;;;4.15;3.00;;;-0.20;99.90;;;;;;8228015;28;20026;-79
2023/02/07 13:33:03;;;;;;;21.15;9.10;;;-0.20;99.90;;;;;;8230376;28;20030;-79
2023/02/07 13:37:05;;;;;;;7.30;4.90;;;-0.10;99.90;;;;;;8229982;28;20030;-79
2023/02/07 13:41:28;;;;;;;13.48;7.18;;;0.00;99.90;;;;;;8231707;28;20027;-79
2023/02/07 13:45:39;;;;;;;5.88;3.70;;;-0.10;99.90;;;;;;8225814;28;20027;-79
2023/02/07 13:50:01;;;;;;;3.65;2.53;;;0.10;99.90;;;;;;8227476;28;20583;-79
2023/02/07 13:54:30;;;;;;;9.32;4.68;;;0.20;99.90;;;;;;8226297;28;20033;-79
2023/02/07 14:03:02;;;;;;;1.55;0.95;;;0.10;99.90;;;;;;8229159;28;20250;-79
2023/02/07 14:07:07;;;;;;;4.57;3.75;;;-0.10;99.90;;;;;;8226191;28;20027;-79
2023/02/07 14:11:34;;;;;;;3.90;2.65;;;0.00;99.90;;;;;;8228619;28;20073;-79
2023/02/07 14:15:37;;;;;;;9.73;5.25;;;0.10;99.90;;;;;;8225967;28;20514;-79
2023/02/07 14:19:44;;;;;;;2.58;1.90;;;-0.30;99.90;;;;;;8228648;28;20030;-80
2023/02/07 14:24:01;;;;;;;10.48;4.93;;;-0.50;99.90;;;;;;8229494;28;20029;-80
2023/02/07 14:28:05;;;;;;;14.00;7.72;;;-0.60;99.90;;;;;;8229125;28;20030;-79
2023/02/07 14:32:14;;;;;;;7.20;2.50;;;-0.60;99.90;;;;;;8228845;28;20494;-79
2023/02/07 14:36:15;;;;;;;;;;;-0.60;99.90;;;;;;8229835;28;20377;-81
2023/02/07 14:40:30;;;;;;;2.40;1.65;;;-0.60;99.90;;;;;;8229201;28;19921;-81
2023/02/07 14:44:37;;;;;;;12.35;7.28;;;-0.60;99.90;;;;;;8227815;28;20025;-81
2023/02/07 14:48:48;;;;;;;6.25;3.53;;;-0.70;99.90;;;;;;8227450;28;20034;-81
2023/02/07 14:52:50;;;;;;;12.60;5.97;;;-0.70;99.90;;;;;;8229490;28;20538;-81
2023/02/07 14:57:25;;;;;;;16.15;8.43;;;-0.70;99.90;;;;;;8230851;28;20480;-82
2023/02/07 15:01:26;;;;;;;8.68;4.53;;;-0.70;99.90;;;;;;8226239;28;20030;-81
2023/02/07 15:05:32;;;;;;;8.95;5.80;;;-0.90;99.90;;;;;;8223918;28;20025;-81
2023/02/07 15:09:33;;;;;;;15.38;5.93;;;-0.90;99.90;;;;;;8225398;28;20057;-81
2023/02/07 15:13:37;;;;;;;8.77;4.72;;;-0.90;99.90;;;;;;8223289;28;20057;-80
2023/02/07 15:17:39;;;;;;;19.00;10.10;;;-0.90;99.90;;;;;;8226648;28;20019;-81
2023/02/07 15:21:44;;;;;;;7.40;4.57;;;-0.90;99.90;;;;;;8230716;28;20031;-81
2023/02/07 15:25:46;;;;;;;12.93;4.40;;;-1.00;99.90;;;;;;8231828;28;20033;-83
2023/02/07 15:29:57;;;;;;;14.82;8.60;;;-1.00;99.90;;;;;;8236256;28;20026;-82
2023/02/07 15:34:05;;;;;;;7.80;5.53;;;-1.00;99.90;;;;;;8234317;28;20031;-80
2023/02/07 15:38:19;;;;;;;7.43;4.18;;;-1.10;99.90;;;;;;8238557;28;20031;-80
2023/02/07 15:42:20;;;;;;;2.65;1.58;;;-1.20;99.90;;;;;;8236342;28;20074;-81
2023/02/07 15:46:21;;;;;;;22.30;6.82;;;-1.30;99.90;;;;;;8238232;28;20034;-82
2023/02/07 15:50:23;;;;;;;11.18;5.30;;;-1.40;99.90;;;;;;8233328;28;20033;-80
2023/02/07 15:54:24;;;;;;;7.55;3.90;;;-1.50;99.90;;;;;;8232190;28;20057;-83
2023/02/07 15:58:30;;;;;;;7.05;2.58;;;-1.60;99.90;;;;;;8238001;28;20128;-80
2023/02/07 16:02:35;;;;;;;8.05;4.30;;;-1.60;99.90;;;;;;8236321;28;20077;-82
2023/02/07 16:06:36;;;;;;;10.90;6.25;;;-1.60;99.90;;;;;;8237194;28;20023;-82
2023/02/07 16:10:38;;;;;;;15.75;6.70;;;-1.70;99.90;;;;;;8233662;28;20055;-83
2023/02/07 16:14:39;;;;;;;3.75;2.67;;;-1.80;99.90;;;;;;8233629;28;20087;-83
2023/02/07 16:18:41;;;;;;;11.93;4.90;;;-1.90;99.90;;;;;;8239380;28;20027;-82
2023/02/07 16:22:44;;;;;;;5.57;4.10;;;-2.00;99.90;;;;;;8238115;28;20099;-82
2023/02/07 16:26:47;;;;;;;20.25;8.10;;;-2.10;99.90;;;;;;8237479;28;20027;-84
2023/02/07 16:30:47;;;;;;;2.92;1.70;;;-2.20;99.90;;;;;;8236173;28;20030;-82
2023/02/07 16:34:48;;;;;;;14.27;6.80;;;-2.30;99.90;;;;;;8234792;28;20029;-83
2023/02/07 16:38:48;;;;;;;13.90;7.28;;;-2.40;99.90;;;;;;8238885;28;20113;-83
2023/02/07 16:42:51;;;;;;;1.98;1.80;;;-2.50;99.90;;;;;;8237704;28;20511;-83
2023/02/07 16:46:52;;;;;;;2.63;1.02;;;-2.70;99.90;;;;;;8232401;28;20019;-82
2023/02/07 16:50:52;;;;;;;8.68;3.60;;;-2.80;99.90;;;;;;8227972;28;20019;-80
2023/02/07 16:54:53;;;;;;;11.30;4.22;;;-2.90;99.90;;;;;;8233866;28;20022;-81
2023/02/07 16:58:53;;;;;;;10.45;6.47;;;-2.80;99.90;;;;;;8234578;28;20058;-81
2023/02/07 17:02:54;;;;;;;5.68;3.15;;;-2.90;99.90;;;;;;8234289;28;20038;-83
2023/02/07 17:06:54;;;;;;;10.70;5.30;;;-2.90;99.90;;;;;;8233931;28;20031;-80
2023/02/07 17:11:00;;;;;;;4.53;1.20;;;-3.00;99.90;;;;;;8233650;28;20038;-81
2023/02/07 17:15:02;;;;;;;8.63;3.55;;;-3.00;99.90;;;;;;8234096;28;20484;-80
2023/02/07 17:19:22;;;;;;;8.23;4.50;;;-3.20;99.90;;;;;;8234461;28;20423;-80
2023/02/07 17:23:24;;;;;;;9.10;3.05;;;-3.30;99.90;;;;;;8234809;28;20027;-80
2023/02/07 17:27:24;;;;;;;15.68;6.13;;;-3.50;99.90;;;;;;8232653;28;20092;-80
2023/02/07 17:31:25;;;;;;;9.65;5.32;;;-3.60;99.90;;;;;;8233296;28;20030;-80
2023/02/07 17:35:26;;;;;;;11.55;5.35;;;-3.50;99.90;;;;;;8234794;28;20106;-82
2023/02/07 17:39:26;;;;;;;11.27;5.15;;;-3.50;99.90;;;;;;8231113;28;20023;-79
2023/02/07 17:43:27;;;;;;;8.50;4.28;;;-3.30;99.90;;;;;;8249280;28;20054;-81
2023/02/07 17:47:27;;;;;;;4.47;1.33;;;-3.30;99.90;;;;;;8252311;28;20078;-80
2023/02/07 17:51:28;;;;;;;3.97;2.35;;;-3.30;99.90;;;;;;8235873;28;20031;-79
2023/02/07 17:55:30;;;;;;;2.08;1.67;;;-3.40;99.90;;;;;;8231805;28;20023;-79
2023/02/07 17:59:31;;;;;;;2.17;1.02;;;-3.30;99.90;;;;;;8230133;28;20027;-80
2023/02/07 18:03:32;;;;;;;2.22;0.35;;;-3.40;99.90;;;;;;8234724;28;20026;-81
2023/02/07 18:07:32;;;;;;;7.80;4.10;;;-3.40;99.90;;;;;;8227050;28;20015;-80
2023/02/07 18:11:33;;;;;;;5.38;3.13;;;-3.50;99.90;;;;;;8234902;28;20050;-80
2023/02/07 18:15:34;;;;;;;8.82;4.70;;;-3.60;99.90;;;;;;8229135;28;20027;-81
2023/02/07 18:19:34;;;;;;;10.10;5.28;;;-3.70;99.90;;;;;;8229600;28;20037;-79
2023/02/07 18:23:35;;;;;;;11.15;5.38;;;-4.30;99.90;;;;;;8230459;28;20023;-79
2023/02/07 18:27:36;;;;;;;11.95;4.90;;;-4.70;99.90;;;;;;8228139;28;20026;-79
2023/02/07 18:31:37;;;;;;;9.38;5.55;;;-5.00;99.90;;;;;;8229602;28;20026;-78
2023/02/07 18:35:37;;;;;;;13.27;6.03;;;-5.10;99.90;;;;;;8230925;28;20025;-79
2023/02/07 18:39:38;;;;;;;12.30;4.45;;;-5.20;99.90;;;;;;8225268;28;20035;-79
2023/02/07 18:43:39;;;;;;;9.75;5.47;;;-5.30;99.90;;;;;;8224932;28;20534;-79
2023/02/07 18:47:41;;;;;;;9.32;5.78;;;-5.40;99.90;;;;;;8229551;28;20038;-79
2023/02/07 18:51:41;;;;;;;10.77;4.93;;;-5.60;99.90;;;;;;8226474;28;20114;-79
2023/02/07 18:55:42;;;;;;;10.30;4.35;;;-5.50;99.90;;;;;;8222761;28;20020;-78
2023/02/07 18:59:42;;;;;;;8.45;4.47;;;-5.50;99.90;;;;;;8228584;28;20411;-79
2023/02/07 19:03:44;;;;;;;8.10;5.43;;;-5.60;99.90;;;;;;8227758;28;20109;-78
2023/02/07 19:07:45;;;;;;;10.70;6.43;;;-5.30;99.90;;;;;;8245369;28;20106;-78
2023/02/07 19:11:49;;;;;;;12.32;4.38;;;-5.20;99.90;;;;;;8236976;28;20019;-78
2023/02/07 19:15:50;;;;;;;9.20;3.83;;;-5.40;99.90;;;;;;8242518;28;20027;-77
2023/02/07 19:19:51;;;;;;;13.25;5.45;;;-5.50;99.90;;;;;;8248351;28;20038;-78
2023/02/07 19:23:53;;;;;;;7.00;4.32;;;-5.20;99.90;;;;;;8236472;28;20101;-79
2023/02/07 19:27:54;;;;;;;5.72;4.15;;;-5.20;99.90;;;;;;8238769;28;20053;-78
2023/02/07 19:32:06;;;;;;;10.30;5.18;;;-5.40;99.90;;;;;;8227901;28;20039;-79
2023/02/07 19:36:08;;;;;;;9.68;5.13;;;-5.30;99.90;;;;;;8233644;28;20030;-78
2023/02/07 19:40:10;;;;;;;5.80;2.85;;;-5.10;99.90;;;;;;8230485;28;20086;-79
2023/02/07 19:44:11;;;;;;;9.95;4.85;;;-5.20;99.90;;;;;;8233067;28;20495;-79
2023/02/07 19:48:11;;;;;;;9.18;4.45;;;-5.10;99.90;;;;;;8232426;28;20032;-79
2023/02/07 19:52:12;;;;;;;8.23;5.00;;;-5.10;99.90;;;;;;8230443;28;20110;-78
2023/02/07 19:56:13;;;;;;;8.43;4.80;;;-5.10;99.90;;;;;;8223375;28;20097;-78
2023/02/07 20:00:13;;;;;;;10.45;5.10;;;-5.40;99.90;;;;;;8224863;28;20499;-76
2023/02/07 20:04:14;;;;;;;9.73;5.20;;;-5.50;99.90;;;;;;8225297;28;20026;-77
2023/02/07 20:08:15;;;;;;;12.63;4.80;;;-5.60;99.90;;;;;;8222121;28;20054;-77
2023/02/07 20:12:15;;;;;;;6.53;4.35;;;-5.40;99.90;;;;;;8226256;28;20037;-75
2023/02/07 20:16:22;;;;;;;7.35;5.05;;;-5.30;99.90;;;;;;8226729;28;20054;-77
2023/02/07 20:20:22;;;;;;;10.73;4.65;;;-5.30;99.90;;;;;;8221801;28;20022;-77
2023/02/07 20:24:23;;;;;;;8.30;3.55;;;-5.50;99.90;;;;;;8224173;28;20718;-79
2023/02/07 20:28:28;;;;;;;10.27;4.85;;;-5.40;99.90;;;;;;8218717;28;20062;-79
2023/02/07 20:32:28;;;;;;;7.57;4.63;;;-5.40;99.90;;;;;;8223607;28;20035;-79
2023/02/07 20:36:30;;;;;;;13.30;5.70;;;-5.70;99.90;;;;;;8219126;28;20083;-78
2023/02/07 20:40:32;;;;;;;10.63;5.03;;;-5.80;99.90;;;;;;8220360;28;20499;-77
2023/02/07 20:44:32;;;;;;;5.88;4.10;;;-6.00;99.90;;;;;;8223547;28;20023;-77
2023/02/07 20:48:33;;;;;;;7.28;3.78;;;-6.10;99.90;;;;;;8220746;28;20428;-77
2023/02/07 20:52:36;;;;;;;6.70;3.78;;;-6.20;99.90;;;;;;8215759;28;20027;-77
2023/02/07 20:56:37;;;;;;;6.88;3.42;;;-6.20;99.90;;;;;;8229636;28;20015;-77
2023/02/07 21:00:37;;;;;;;5.90;3.65;;;-6.30;99.90;;;;;;8227953;28;20399;-77
2023/02/07 21:04:38;;;;;;;8.20;3.72;;;-6.30;99.90;;;;;;8230041;28;20110;-78
2023/02/07 21:08:39;;;;;;;6.60;3.55;;;-6.50;99.90;;;;;;8226259;28;20038;-77
2023/02/07 21:12:39;;;;;;;7.93;4.18;;;-6.50;99.90;;;;;;8229517;28;20030;-78